sensor_id;sensor_type;location;lat;lon;timestamp;pressure;altitude;pressure_sealevel;temperature
65316;BMP280;51920;53.952;10.292;2023-04-29T00:01:23;100724.56;;;7.64
65316;BMP280;51920;53.952;10.292;2023-04-29T00:03:51;100721.94;;;7.67
65316;BMP280;51920;53.952;10.292;2023-04-29T00:06:18;100718.88;;;7.69
65316;BMP280;51920;53.952;10.292;2023-04-29T00:08:44;100718.47;;;7.67
65316;BMP280;51920;53.952;10.292;2023-04-29T00:11:12;100722.63;;;7.64
65316;BMP280;51920;53.952;10.292;2023-04-29T00:13:38;100730.31;;;7.62
65316;BMP280;51920;53.952;10.292;2023-04-29T00:16:07;100725.19;;;7.57
65316;BMP280;51920;53.952;10.292;2023-04-29T00:18:36;100729.03;;;7.56
65316;BMP280;51920;53.952;10.292;2023-04-29T00:21:03;100734.84;;;7.58
65316;BMP280;51920;53.952;10.292;2023-04-29T00:23:32;100732.59;;;7.60
65316;BMP280;51920;53.952;10.292;2023-04-29T00:25:59;100727.97;;;7.61
65316;BMP280;51920;53.952;10.292;2023-04-29T00:28:28;100723.72;;;7.60
65316;BMP280;51920;53.952;10.292;2023-04-29T00:30:55;100720.16;;;7.56
65316;BMP280;51920;53.952;10.292;2023-04-29T00:33:22;100721.81;;;7.60
65316;BMP280;51920;53.952;10.292;2023-04-29T00:35:49;100721.31;;;7.55
65316;BMP280;51920;53.952;10.292;2023-04-29T00:38:16;100724.22;;;7.65
65316;BMP280;51920;53.952;10.292;2023-04-29T00:40:43;100726.09;;;7.65
65316;BMP280;51920;53.952;10.292;2023-04-29T00:43:10;100728.41;;;7.63
65316;BMP280;51920;53.952;10.292;2023-04-29T00:45:38;100730.66;;;7.61
65316;BMP280;51920;53.952;10.292;2023-04-29T00:48:05;100728.31;;;7.59
65316;BMP280;51920;53.952;10.292;2023-04-29T00:50:31;100729.13;;;7.60
65316;BMP280;51920;53.952;10.292;2023-04-29T00:52:59;100733.72;;;7.59
65316;BMP280;51920;53.952;10.292;2023-04-29T00:55:28;100733.72;;;7.59
65316;BMP280;51920;53.952;10.292;2023-04-29T00:57:56;100746.06;;;7.60
65316;BMP280;51920;53.952;10.292;2023-04-29T01:00:23;100747.91;;;7.56
65316;BMP280;51920;53.952;10.292;2023-04-29T01:02:52;100742.94;;;7.58
65316;BMP280;51920;53.952;10.292;2023-04-29T01:05:19;100741.03;;;7.59
65316;BMP280;51920;53.952;10.292;2023-04-29T01:10:38;100747.19;;;7.59
65316;BMP280;51920;53.952;10.292;2023-04-29T01:13:17;100745.84;;;7.50
65316;BMP280;51920;53.952;10.292;2023-04-29T01:15:58;100749.38;;;7.54
65316;BMP280;51920;53.952;10.292;2023-04-29T01:18:38;100752.06;;;7.54
65316;BMP280;51920;53.952;10.292;2023-04-29T01:21:10;100750.16;;;7.54
65316;BMP280;51920;53.952;10.292;2023-04-29T01:23:36;100746.84;;;7.61
65316;BMP280;51920;53.952;10.292;2023-04-29T01:26:03;100748.34;;;7.58
65316;BMP280;51920;53.952;10.292;2023-04-29T01:29:21;100750.53;;;7.53
65316;BMP280;51920;53.952;10.292;2023-04-29T01:34:33;100747.19;;;7.59
65316;BMP280;51920;53.952;10.292;2023-04-29T01:43:12;100753.31;;;7.56
65316;BMP280;51920;53.952;10.292;2023-04-29T01:45:43;100748.34;;;7.58
65316;BMP280;51920;53.952;10.292;2023-04-29T01:48:11;100759.03;;;7.55
65316;BMP280;51920;53.952;10.292;2023-04-29T01:50:39;100756.44;;;7.58
65316;BMP280;51920;53.952;10.292;2023-04-29T01:53:10;100764.44;;;7.55
65316;BMP280;51920;53.952;10.292;2023-04-29T01:55:37;100766.88;;;7.60
65316;BMP280;51920;53.952;10.292;2023-04-29T01:58:17;100767.63;;;7.60
65316;BMP280;51920;53.952;10.292;2023-04-29T02:01:03;100761.53;;;7.63
65316;BMP280;51920;53.952;10.292;2023-04-29T02:03:32;100766.94;;;7.63
65316;BMP280;51920;53.952;10.292;2023-04-29T02:06:00;100777.78;;;7.67
65316;BMP280;51920;53.952;10.292;2023-04-29T02:08:28;100780.47;;;7.67
65316;BMP280;51920;53.952;10.292;2023-04-29T02:10:57;100771.56;;;7.66
65316;BMP280;51920;53.952;10.292;2023-04-29T02:13:42;100771.56;;;7.66
65316;BMP280;51920;53.952;10.292;2023-04-29T02:16:12;100780.56;;;7.71
65316;BMP280;51920;53.952;10.292;2023-04-29T02:18:44;100783.25;;;7.71
65316;BMP280;51920;53.952;10.292;2023-04-29T02:21:11;100787.16;;;7.73
65316;BMP280;51920;53.952;10.292;2023-04-29T02:23:38;100775.84;;;7.67
65316;BMP280;51920;53.952;10.292;2023-04-29T02:26:05;100780.97;;;7.73
65316;BMP280;51920;53.952;10.292;2023-04-29T02:28:32;100787.50;;;7.72
65316;BMP280;51920;53.952;10.292;2023-04-29T02:31:00;100776.34;;;7.73
65316;BMP280;51920;53.952;10.292;2023-04-29T02:33:29;100784.09;;;7.75
65316;BMP280;51920;53.952;10.292;2023-04-29T02:35:56;100778.72;;;7.75
65316;BMP280;51920;53.952;10.292;2023-04-29T02:38:23;100786.78;;;7.75
65316;BMP280;51920;53.952;10.292;2023-04-29T02:40:49;100789.50;;;7.75
65316;BMP280;51920;53.952;10.292;2023-04-29T02:43:17;100795.34;;;7.80
65316;BMP280;51920;53.952;10.292;2023-04-29T02:45:44;100791.13;;;7.79
65316;BMP280;51920;53.952;10.292;2023-04-29T02:48:10;100795.66;;;7.75
65316;BMP280;51920;53.952;10.292;2023-04-29T02:50:38;100803.75;;;7.75
65316;BMP280;51920;53.952;10.292;2023-04-29T02:53:05;100800.31;;;7.78
65316;BMP280;51920;53.952;10.292;2023-04-29T02:55:31;100805.72;;;7.78
65316;BMP280;51920;53.952;10.292;2023-04-29T02:58:04;100809.47;;;7.74
65316;BMP280;51920;53.952;10.292;2023-04-29T03:00:31;100809.88;;;7.72
65316;BMP280;51920;53.952;10.292;2023-04-29T03:02:57;100808.72;;;7.73
65316;BMP280;51920;53.952;10.292;2023-04-29T03:05:24;100818.00;;;7.76
65316;BMP280;51920;53.952;10.292;2023-04-29T03:07:51;100831.34;;;7.68
65316;BMP280;51920;53.952;10.292;2023-04-29T03:10:18;100829.44;;;7.69
65316;BMP280;51920;53.952;10.292;2023-04-29T03:12:45;100825.50;;;7.66
65316;BMP280;51920;53.952;10.292;2023-04-29T03:15:11;100819.34;;;7.66
65316;BMP280;51920;53.952;10.292;2023-04-29T03:17:39;100821.97;;;7.62
65316;BMP280;51920;53.952;10.292;2023-04-29T03:20:06;100823.91;;;7.62
65316;BMP280;51920;53.952;10.292;2023-04-29T03:22:33;100834.59;;;7.58
65316;BMP280;51920;53.952;10.292;2023-04-29T03:25:02;100840.69;;;7.55
65316;BMP280;51920;53.952;10.292;2023-04-29T03:27:29;100843.38;;;7.55
65316;BMP280;51920;53.952;10.292;2023-04-29T03:29:55;100844.34;;;7.47
65316;BMP280;51920;53.952;10.292;2023-04-29T03:32:22;100842.38;;;7.44
65316;BMP280;51920;53.952;10.292;2023-04-29T03:34:49;100845.69;;;7.37
65316;BMP280;51920;53.952;10.292;2023-04-29T03:37:38;100850.91;;;7.30
65316;BMP280;51920;53.952;10.292;2023-04-29T03:40:25;100852.41;;;7.27
65316;BMP280;51920;53.952;10.292;2023-04-29T03:42:52;100852.94;;;7.17
65316;BMP280;51920;53.952;10.292;2023-04-29T03:45:18;100850.22;;;7.17
65316;BMP280;51920;53.952;10.292;2023-04-29T03:47:46;100863.25;;;7.15
65316;BMP280;51920;53.952;10.292;2023-04-29T03:50:12;100865.00;;;7.07
65316;BMP280;51920;53.952;10.292;2023-04-29T03:52:40;100867.25;;;7.05
65316;BMP280;51920;53.952;10.292;2023-04-29T03:55:10;100867.44;;;6.97
65316;BMP280;51920;53.952;10.292;2023-04-29T03:57:38;100866.31;;;6.98
65316;BMP280;51920;53.952;10.292;2023-04-29T04:00:07;100872.47;;;6.98
65316;BMP280;51920;53.952;10.292;2023-04-29T04:02:45;100880.56;;;6.98
65316;BMP280;51920;53.952;10.292;2023-04-29T04:05:13;100886.97;;;6.94
65316;BMP280;51920;53.952;10.292;2023-04-29T04:07:45;100882.38;;;6.94
65316;BMP280;51920;53.952;10.292;2023-04-29T04:10:32;100889.94;;;6.89
65316;BMP280;51920;53.952;10.292;2023-04-29T04:13:02;100893.22;;;6.82
65316;BMP280;51920;53.952;10.292;2023-04-29T04:15:30;100892.00;;;6.79
65316;BMP280;51920;53.952;10.292;2023-04-29T04:17:57;100896.97;;;6.77
65316;BMP280;51920;53.952;10.292;2023-04-29T04:20:24;100904.34;;;6.80
65316;BMP280;51920;53.952;10.292;2023-04-29T04:22:51;100905.13;;;6.81
65316;BMP280;51920;53.952;10.292;2023-04-29T04:25:26;100902.41;;;6.81
65316;BMP280;51920;53.952;10.292;2023-04-29T04:28:00;100900.50;;;6.81
65316;BMP280;51920;53.952;10.292;2023-04-29T04:30:56;100910.16;;;6.82
65316;BMP280;51920;53.952;10.292;2023-04-29T04:33:24;100914.63;;;6.91
65316;BMP280;51920;53.952;10.292;2023-04-29T04:35:51;100915.75;;;6.90
65316;BMP280;51920;53.952;10.292;2023-04-29T04:38:18;100920.72;;;7.03
65316;BMP280;51920;53.952;10.292;2023-04-29T04:40:45;100926.72;;;7.13
65316;BMP280;51920;53.952;10.292;2023-04-29T04:43:38;100927.47;;;7.13
65316;BMP280;51920;53.952;10.292;2023-04-29T04:46:14;100926.63;;;7.25
65316;BMP280;51920;53.952;10.292;2023-04-29T04:48:57;100932.75;;;7.41
65316;BMP280;51920;53.952;10.292;2023-04-29T04:51:24;100938.16;;;7.57
65316;BMP280;51920;53.952;10.292;2023-04-29T04:53:50;100942.84;;;7.60
65316;BMP280;51920;53.952;10.292;2023-04-29T04:56:19;100935.09;;;7.75
65316;BMP280;51920;53.952;10.292;2023-04-29T04:58:46;100939.31;;;7.92
65316;BMP280;51920;53.952;10.292;2023-04-29T05:01:13;100946.47;;;8.03
65316;BMP280;51920;53.952;10.292;2023-04-29T05:03:40;100940.44;;;8.10
65316;BMP280;51920;53.952;10.292;2023-04-29T05:06:07;100944.56;;;8.23
65316;BMP280;51920;53.952;10.292;2023-04-29T05:08:34;100945.81;;;8.26
65316;BMP280;51920;53.952;10.292;2023-04-29T05:11:03;100956.72;;;8.33
65316;BMP280;51920;53.952;10.292;2023-04-29T05:13:32;100960.69;;;8.59
65316;BMP280;51920;53.952;10.292;2023-04-29T05:16:01;100967.78;;;8.67
65316;BMP280;51920;53.952;10.292;2023-04-29T05:18:30;100972.50;;;8.93
65316;BMP280;51920;53.952;10.292;2023-04-29T05:20:58;100969.13;;;9.19
65316;BMP280;51920;53.952;10.292;2023-04-29T05:23:25;100969.81;;;9.16
65316;BMP280;51920;53.952;10.292;2023-04-29T05:25:52;100967.47;;;9.38
65316;BMP280;51920;53.952;10.292;2023-04-29T05:28:19;100979.97;;;9.46
65316;BMP280;51920;53.952;10.292;2023-04-29T05:30:45;100985.47;;;9.53
65316;BMP280;51920;53.952;10.292;2023-04-29T05:33:13;100983.47;;;9.77
65316;BMP280;51920;53.952;10.292;2023-04-29T05:35:41;100988.47;;;10.01
65316;BMP280;51920;53.952;10.292;2023-04-29T05:38:08;100986.13;;;10.00
65316;BMP280;51920;53.952;10.292;2023-04-29T05:40:38;100981.91;;;10.36
65316;BMP280;51920;53.952;10.292;2023-04-29T05:43:25;100993.63;;;10.44
65316;BMP280;51920;53.952;10.292;2023-04-29T05:45:52;100987.13;;;10.55
65316;BMP280;51920;53.952;10.292;2023-04-29T05:48:18;100995.31;;;10.59
65316;BMP280;51920;53.952;10.292;2023-04-29T05:50:45;100990.69;;;10.60
65316;BMP280;51920;53.952;10.292;2023-04-29T05:53:13;100988.59;;;10.83
65316;BMP280;51920;53.952;10.292;2023-04-29T05:55:41;100988.72;;;10.94
65316;BMP280;51920;53.952;10.292;2023-04-29T05:58:11;101000.31;;;10.94
65316;BMP280;51920;53.952;10.292;2023-04-29T06:00:37;101011.66;;;11.04
65316;BMP280;51920;53.952;10.292;2023-04-29T06:03:11;101003.03;;;10.94
65316;BMP280;51920;53.952;10.292;2023-04-29T06:05:37;101014.00;;;11.09
65316;BMP280;51920;53.952;10.292;2023-04-29T06:08:16;101011.41;;;11.19
65316;BMP280;51920;53.952;10.292;2023-04-29T06:10:45;101013.56;;;11.03
65316;BMP280;51920;53.952;10.292;2023-04-29T06:13:12;101023.59;;;11.51
65316;BMP280;51920;53.952;10.292;2023-04-29T06:15:38;101016.91;;;11.30
65316;BMP280;51920;53.952;10.292;2023-04-29T06:18:05;101024.44;;;11.07
65316;BMP280;51920;53.952;10.292;2023-04-29T06:20:31;101033.66;;;10.95
65316;BMP280;51920;53.952;10.292;2023-04-29T06:22:59;101031.34;;;10.63
65316;BMP280;51920;53.952;10.292;2023-04-29T06:25:27;101028.81;;;10.77
65316;BMP280;51920;53.952;10.292;2023-04-29T06:27:56;101030.97;;;10.98
65316;BMP280;51920;53.952;10.292;2023-04-29T06:30:25;101036.81;;;11.52
65316;BMP280;51920;53.952;10.292;2023-04-29T06:32:53;101047.34;;;11.61
65316;BMP280;51920;53.952;10.292;2023-04-29T06:35:20;101050.63;;;11.88
65316;BMP280;51920;53.952;10.292;2023-04-29T06:37:58;101045.16;;;11.85
65316;BMP280;51920;53.952;10.292;2023-04-29T06:40:52;101054.44;;;11.73
65316;BMP280;51920;53.952;10.292;2023-04-29T06:43:48;101051.84;;;11.94
65316;BMP280;51920;53.952;10.292;2023-04-29T06:46:37;101054.25;;;12.14
65316;BMP280;51920;53.952;10.292;2023-04-29T06:49:27;101064.44;;;12.31
65316;BMP280;51920;53.952;10.292;2023-04-29T06:51:54;101059.72;;;12.17
65316;BMP280;51920;53.952;10.292;2023-04-29T06:54:24;101060.97;;;12.56
65316;BMP280;51920;53.952;10.292;2023-04-29T06:56:53;101058.84;;;12.02
65316;BMP280;51920;53.952;10.292;2023-04-29T06:59:20;101053.84;;;12.08
65316;BMP280;51920;53.952;10.292;2023-04-29T07:01:47;101070.16;;;12.12
65316;BMP280;51920;53.952;10.292;2023-04-29T07:04:17;101073.34;;;12.32
65316;BMP280;51920;53.952;10.292;2023-04-29T07:06:46;101075.31;;;12.35
65316;BMP280;51920;53.952;10.292;2023-04-29T07:09:13;101077.22;;;12.34
65316;BMP280;51920;53.952;10.292;2023-04-29T07:11:40;101078.97;;;13.00
65316;BMP280;51920;53.952;10.292;2023-04-29T07:14:07;101073.53;;;13.18
65316;BMP280;51920;53.952;10.292;2023-04-29T07:16:33;101093.00;;;13.41
65316;BMP280;51920;53.952;10.292;2023-04-29T07:19:00;101084.41;;;13.50
65316;BMP280;51920;53.952;10.292;2023-04-29T07:21:29;101089.81;;;13.75
65316;BMP280;51920;53.952;10.292;2023-04-29T07:23:56;101085.13;;;13.90
65316;BMP280;51920;53.952;10.292;2023-04-29T07:26:28;101088.66;;;13.62
65316;BMP280;51920;53.952;10.292;2023-04-29T07:28:55;101087.56;;;13.34
65316;BMP280;51920;53.952;10.292;2023-04-29T07:31:22;101092.13;;;12.83
65316;BMP280;51920;53.952;10.292;2023-04-29T07:33:49;101099.97;;;13.53
65316;BMP280;51920;53.952;10.292;2023-04-29T07:36:16;101099.94;;;13.85
65316;BMP280;51920;53.952;10.292;2023-04-29T07:38:42;101103.84;;;13.63
65316;BMP280;51920;53.952;10.292;2023-04-29T07:41:09;101097.59;;;13.77
65316;BMP280;51920;53.952;10.292;2023-04-29T07:43:36;101109.88;;;14.38
65316;BMP280;51920;53.952;10.292;2023-04-29T07:46:03;101108.28;;;14.41
65316;BMP280;51920;53.952;10.292;2023-04-29T07:48:30;101112.50;;;14.60
65316;BMP280;51920;53.952;10.292;2023-04-29T07:50:56;101109.38;;;14.58
65316;BMP280;51920;53.952;10.292;2023-04-29T07:53:23;101115.41;;;14.91
65316;BMP280;51920;53.952;10.292;2023-04-29T07:55:50;101117.41;;;14.83
65316;BMP280;51920;53.952;10.292;2023-04-29T07:58:19;101124.78;;;14.90
65316;BMP280;51920;53.952;10.292;2023-04-29T08:00:45;101123.16;;;14.15
65316;BMP280;51920;53.952;10.292;2023-04-29T08:03:12;101131.56;;;14.64
65316;BMP280;51920;53.952;10.292;2023-04-29T08:05:39;101132.38;;;15.16
65316;BMP280;51920;53.952;10.292;2023-04-29T08:08:06;101135.59;;;15.53
65316;BMP280;51920;53.952;10.292;2023-04-29T08:10:36;101137.91;;;15.09
65316;BMP280;51920;53.952;10.292;2023-04-29T08:13:03;101139.13;;;14.16
65316;BMP280;51920;53.952;10.292;2023-04-29T08:15:30;101142.84;;;14.66
65316;BMP280;51920;53.952;10.292;2023-04-29T08:17:57;101149.00;;;15.33
65316;BMP280;51920;53.952;10.292;2023-04-29T08:20:24;101150.66;;;15.68
65316;BMP280;51920;53.952;10.292;2023-04-29T08:22:51;101156.22;;;15.95
65316;BMP280;51920;53.952;10.292;2023-04-29T08:25:18;101158.06;;;15.67
65316;BMP280;51920;53.952;10.292;2023-04-29T08:27:45;101160.63;;;15.44
65316;BMP280;51920;53.952;10.292;2023-04-29T08:30:12;101158.59;;;15.55
65316;BMP280;51920;53.952;10.292;2023-04-29T08:32:39;101179.13;;;15.70
65316;BMP280;51920;53.952;10.292;2023-04-29T08:35:06;101176.63;;;15.87
65316;BMP280;51920;53.952;10.292;2023-04-29T08:37:33;101181.81;;;15.29
65316;BMP280;51920;53.952;10.292;2023-04-29T08:40:00;101181.47;;;15.68
65316;BMP280;51920;53.952;10.292;2023-04-29T08:42:35;101185.38;;;15.67
65316;BMP280;51920;53.952;10.292;2023-04-29T08:45:05;101195.22;;;15.02
65316;BMP280;51920;53.952;10.292;2023-04-29T08:47:33;101192.16;;;14.93
65316;BMP280;51920;53.952;10.292;2023-04-29T08:50:04;101192.09;;;15.07
65316;BMP280;51920;53.952;10.292;2023-04-29T08:52:32;101195.34;;;14.84
65316;BMP280;51920;53.952;10.292;2023-04-29T08:54:59;101200.50;;;15.79
65316;BMP280;51920;53.952;10.292;2023-04-29T08:57:34;101184.44;;;16.23
65316;BMP280;51920;53.952;10.292;2023-04-29T09:00:07;101202.59;;;15.64
65316;BMP280;51920;53.952;10.292;2023-04-29T09:02:48;101202.94;;;16.08
65316;BMP280;51920;53.952;10.292;2023-04-29T09:05:16;101200.09;;;15.32
65316;BMP280;51920;53.952;10.292;2023-04-29T09:07:43;101203.97;;;14.68
65316;BMP280;51920;53.952;10.292;2023-04-29T09:10:10;101201.84;;;15.04
65316;BMP280;51920;53.952;10.292;2023-04-29T09:12:37;101204.75;;;15.84
65316;BMP280;51920;53.952;10.292;2023-04-29T09:15:04;101198.34;;;16.01
65316;BMP280;51920;53.952;10.292;2023-04-29T09:17:41;101197.16;;;15.61
65316;BMP280;51920;53.952;10.292;2023-04-29T09:22:51;101204.38;;;15.33
65316;BMP280;51920;53.952;10.292;2023-04-29T09:25:18;101207.22;;;15.19
65316;BMP280;51920;53.952;10.292;2023-04-29T09:27:46;101218.13;;;15.75
65316;BMP280;51920;53.952;10.292;2023-04-29T09:30:12;101212.69;;;16.43
65316;BMP280;51920;53.952;10.292;2023-04-29T09:32:41;101215.72;;;16.83
65316;BMP280;51920;53.952;10.292;2023-04-29T09:35:25;101220.81;;;16.81
65316;BMP280;51920;53.952;10.292;2023-04-29T09:37:54;101232.47;;;16.85
65316;BMP280;51920;53.952;10.292;2023-04-29T09:40:33;101233.50;;;16.37
65316;BMP280;51920;53.952;10.292;2023-04-29T09:43:11;101242.50;;;16.65
65316;BMP280;51920;53.952;10.292;2023-04-29T09:45:41;101248.22;;;17.32
65316;BMP280;51920;53.952;10.292;2023-04-29T09:48:09;101249.56;;;17.47
65316;BMP280;51920;53.952;10.292;2023-04-29T09:50:39;101242.34;;;17.33
65316;BMP280;51920;53.952;10.292;2023-04-29T09:53:07;101242.53;;;17.93
65316;BMP280;51920;53.952;10.292;2023-04-29T09:55:35;101246.19;;;17.63
65316;BMP280;51920;53.952;10.292;2023-04-29T09:58:02;101234.69;;;16.32
65316;BMP280;51920;53.952;10.292;2023-04-29T10:00:30;101236.44;;;16.16
65316;BMP280;51920;53.952;10.292;2023-04-29T10:03:00;101240.66;;;15.86
65316;BMP280;51920;53.952;10.292;2023-04-29T10:05:27;101244.72;;;16.46
65316;BMP280;51920;53.952;10.292;2023-04-29T10:07:57;101233.28;;;16.55
65316;BMP280;51920;53.952;10.292;2023-04-29T10:10:26;101248.34;;;16.97
65316;BMP280;51920;53.952;10.292;2023-04-29T10:12:55;101240.97;;;16.94
65316;BMP280;51920;53.952;10.292;2023-04-29T10:15:37;101243.88;;;16.80
65316;BMP280;51920;53.952;10.292;2023-04-29T10:18:16;101234.28;;;16.68
65316;BMP280;51920;53.952;10.292;2023-04-29T10:20:46;101232.78;;;16.64
65316;BMP280;51920;53.952;10.292;2023-04-29T10:23:14;101238.50;;;17.03
65316;BMP280;51920;53.952;10.292;2023-04-29T10:25:41;101233.63;;;16.88
65316;BMP280;51920;53.952;10.292;2023-04-29T10:28:12;101237.28;;;16.47
65316;BMP280;51920;53.952;10.292;2023-04-29T10:30:43;101235.78;;;16.42
65316;BMP280;51920;53.952;10.292;2023-04-29T10:33:10;101241.06;;;17.14
65316;BMP280;51920;53.952;10.292;2023-04-29T10:35:37;101236.53;;;17.31
65316;BMP280;51920;53.952;10.292;2023-04-29T10:38:11;101243.03;;;17.14
65316;BMP280;51920;53.952;10.292;2023-04-29T10:40:43;101229.56;;;16.72
65316;BMP280;51920;53.952;10.292;2023-04-29T10:43:12;101246.91;;;16.89
65316;BMP280;51920;53.952;10.292;2023-04-29T10:45:39;101247.88;;;16.07
65316;BMP280;51920;53.952;10.292;2023-04-29T10:48:10;101239.97;;;16.50
65316;BMP280;51920;53.952;10.292;2023-04-29T10:53:15;101244.94;;;17.44
65316;BMP280;51920;53.952;10.292;2023-04-29T10:55:46;101252.13;;;17.07
65316;BMP280;51920;53.952;10.292;2023-04-29T10:58:44;101253.41;;;17.26
65316;BMP280;51920;53.952;10.292;2023-04-29T11:01:13;101252.56;;;17.02
65316;BMP280;51920;53.952;10.292;2023-04-29T11:03:53;101247.13;;;15.99
65316;BMP280;51920;53.952;10.292;2023-04-29T11:06:36;101247.91;;;16.38
65316;BMP280;51920;53.952;10.292;2023-04-29T11:11:43;101244.75;;;17.31
65316;BMP280;51920;53.952;10.292;2023-04-29T11:14:12;101251.97;;;17.68
65316;BMP280;51920;53.952;10.292;2023-04-29T11:16:58;101249.50;;;17.27
65316;BMP280;51920;53.952;10.292;2023-04-29T11:19:39;101241.22;;;17.03
65316;BMP280;51920;53.952;10.292;2023-04-29T11:25:00;101252.22;;;16.69
65316;BMP280;51920;53.952;10.292;2023-04-29T11:27:38;101244.06;;;16.35
65316;BMP280;51920;53.952;10.292;2023-04-29T11:30:06;101225.94;;;16.79
65316;BMP280;51920;53.952;10.292;2023-04-29T11:32:34;101254.16;;;17.03
65316;BMP280;51920;53.952;10.292;2023-04-29T11:35:09;101255.56;;;17.15
65316;BMP280;51920;53.952;10.292;2023-04-29T11:37:38;101264.31;;;17.02
65316;BMP280;51920;53.952;10.292;2023-04-29T11:40:05;101251.72;;;17.09
65316;BMP280;51920;53.952;10.292;2023-04-29T11:42:34;101252.72;;;16.91
65316;BMP280;51920;53.952;10.292;2023-04-29T11:45:02;101260.22;;;17.14
65316;BMP280;51920;53.952;10.292;2023-04-29T11:47:30;101259.88;;;17.12
65316;BMP280;51920;53.952;10.292;2023-04-29T11:50:07;101260.91;;;17.22
65316;BMP280;51920;53.952;10.292;2023-04-29T11:52:39;101255.09;;;17.20
65316;BMP280;51920;53.952;10.292;2023-04-29T11:55:09;101269.34;;;17.35
65316;BMP280;51920;53.952;10.292;2023-04-29T11:57:37;101261.22;;;17.00
65316;BMP280;51920;53.952;10.292;2023-04-29T12:00:12;101258.22;;;17.45
65316;BMP280;51920;53.952;10.292;2023-04-29T12:02:43;101267.63;;;17.68
65316;BMP280;51920;53.952;10.292;2023-04-29T12:05:10;101255.56;;;17.38
65316;BMP280;51920;53.952;10.292;2023-04-29T12:07:38;101257.59;;;17.58
65316;BMP280;51920;53.952;10.292;2023-04-29T12:10:09;101261.53;;;17.33
65316;BMP280;51920;53.952;10.292;2023-04-29T12:12:38;101263.50;;;17.33
65316;BMP280;51920;53.952;10.292;2023-04-29T12:15:07;101266.34;;;17.26
65316;BMP280;51920;53.952;10.292;2023-04-29T12:17:36;101257.53;;;17.38
65316;BMP280;51920;53.952;10.292;2023-04-29T12:20:03;101241.59;;;17.06
65316;BMP280;51920;53.952;10.292;2023-04-29T12:22:30;101244.75;;;17.04
65316;BMP280;51920;53.952;10.292;2023-04-29T12:24:57;101264.69;;;17.05
65316;BMP280;51920;53.952;10.292;2023-04-29T12:27:24;101262.03;;;16.97
65316;BMP280;51920;53.952;10.292;2023-04-29T12:29:52;101273.97;;;16.80
65316;BMP280;51920;53.952;10.292;2023-04-29T12:32:23;101248.25;;;16.77
65316;BMP280;51920;53.952;10.292;2023-04-29T12:34:51;101256.66;;;16.90
65316;BMP280;51920;53.952;10.292;2023-04-29T12:37:18;101253.38;;;17.02
65316;BMP280;51920;53.952;10.292;2023-04-29T12:39:44;101262.59;;;17.12
65316;BMP280;51920;53.952;10.292;2023-04-29T12:42:14;101271.56;;;16.86
65316;BMP280;51920;53.952;10.292;2023-04-29T12:44:48;101261.72;;;16.61
65316;BMP280;51920;53.952;10.292;2023-04-29T12:47:15;101269.41;;;16.70
65316;BMP280;51920;53.952;10.292;2023-04-29T12:49:43;101267.31;;;16.50
65316;BMP280;51920;53.952;10.292;2023-04-29T12:52:11;101269.06;;;16.68
65316;BMP280;51920;53.952;10.292;2023-04-29T12:54:38;101266.75;;;16.97
65316;BMP280;51920;53.952;10.292;2023-04-29T12:57:09;101274.63;;;16.91
65316;BMP280;51920;53.952;10.292;2023-04-29T12:59:37;101268.06;;;16.85
65316;BMP280;51920;53.952;10.292;2023-04-29T13:02:03;101286.50;;;16.81
65316;BMP280;51920;53.952;10.292;2023-04-29T13:04:30;101281.75;;;16.85
65316;BMP280;51920;53.952;10.292;2023-04-29T13:06:57;101272.16;;;16.70
65316;BMP280;51920;53.952;10.292;2023-04-29T13:09:28;101289.00;;;16.65
65316;BMP280;51920;53.952;10.292;2023-04-29T13:11:56;101279.72;;;16.58
65316;BMP280;51920;53.952;10.292;2023-04-29T13:14:23;101282.09;;;16.56
65316;BMP280;51920;53.952;10.292;2023-04-29T13:16:49;101288.88;;;16.75
65316;BMP280;51920;53.952;10.292;2023-04-29T13:19:16;101295.25;;;16.69
65316;BMP280;51920;53.952;10.292;2023-04-29T13:21:49;101292.34;;;16.83
65316;BMP280;51920;53.952;10.292;2023-04-29T13:24:16;101293.41;;;16.24
65316;BMP280;51920;53.952;10.292;2023-04-29T13:26:45;101283.13;;;16.32
65316;BMP280;51920;53.952;10.292;2023-04-29T13:29:12;101285.75;;;16.43
65316;BMP280;51920;53.952;10.292;2023-04-29T13:31:39;101295.97;;;16.73
65316;BMP280;51920;53.952;10.292;2023-04-29T13:34:06;101281.94;;;16.71
65316;BMP280;51920;53.952;10.292;2023-04-29T13:36:34;101288.94;;;16.72
65316;BMP280;51920;53.952;10.292;2023-04-29T13:39:01;101276.78;;;16.76
65316;BMP280;51920;53.952;10.292;2023-04-29T13:41:28;101264.06;;;16.63
65316;BMP280;51920;53.952;10.292;2023-04-29T13:43:57;101293.78;;;16.61
65316;BMP280;51920;53.952;10.292;2023-04-29T13:46:24;101290.53;;;16.69
65316;BMP280;51920;53.952;10.292;2023-04-29T13:48:51;101284.22;;;16.42
65316;BMP280;51920;53.952;10.292;2023-04-29T13:51:20;101266.19;;;16.06
65316;BMP280;51920;53.952;10.292;2023-04-29T13:53:50;101278.94;;;15.82
65316;BMP280;51920;53.952;10.292;2023-04-29T13:56:23;101291.41;;;15.80
65316;BMP280;51920;53.952;10.292;2023-04-29T13:59:06;101297.72;;;15.77
65316;BMP280;51920;53.952;10.292;2023-04-29T14:01:35;101284.41;;;15.79
65316;BMP280;51920;53.952;10.292;2023-04-29T14:04:22;101285.78;;;16.01
65316;BMP280;51920;53.952;10.292;2023-04-29T14:06:49;101286.50;;;16.09
65316;BMP280;51920;53.952;10.292;2023-04-29T14:09:16;101306.03;;;16.07
65316;BMP280;51920;53.952;10.292;2023-04-29T14:11:44;101294.16;;;16.25
65316;BMP280;51920;53.952;10.292;2023-04-29T14:14:11;101310.28;;;16.12
65316;BMP280;51920;53.952;10.292;2023-04-29T14:16:38;101303.84;;;15.88
65316;BMP280;51920;53.952;10.292;2023-04-29T14:19:05;101322.91;;;15.95
65316;BMP280;51920;53.952;10.292;2023-04-29T14:21:32;101301.28;;;16.11
65316;BMP280;51920;53.952;10.292;2023-04-29T14:24:00;101327.84;;;16.14
65316;BMP280;51920;53.952;10.292;2023-04-29T14:26:30;101337.91;;;15.76